Time;durP1;ratioP1;P1;durP2;ratioP2;P2;SDS_P1;SDS_P2;PMS_P1;PMS_P2;Temp;Humidity;BMP_temperature;BMP_pressure;BME280_temperature;BME280_humidity;BME280_pressure;Samples;Min_cycle;Max_cycle;Signal;HPM_P1;HPM_P2
2024/03/30 00:01:50;;;;;;;19.13;17.52;;;10.20;99.90;;;;;;4969100;28;20137;-71
2024/03/30 00:04:16;;;;;;;17.90;16.25;;;10.30;99.90;;;;;;4959397;28;20046;-71
2024/03/30 00:06:43;;;;;;;17.60;16.20;;;10.30;99.90;;;;;;4948908;28;20098;-71
2024/03/30 00:09:09;;;;;;;17.60;16.23;;;10.20;99.90;;;;;;4937587;28;20061;-71
2024/03/30 00:11:35;;;;;;;17.23;15.73;;;10.20;99.90;;;;;;4938915;28;20047;-71
2024/03/30 00:14:01;;;;;;;18.00;16.60;;;10.30;99.90;;;;;;4960733;28;20050;-70
2024/03/30 00:16:27;;;;;;;17.45;16.20;;;10.30;99.90;;;;;;5000677;28;20042;-71
2024/03/30 00:18:53;;;;;;;18.40;17.00;;;10.40;99.90;;;;;;4956264;28;20050;-70
2024/03/30 00:21:20;;;;;;;17.90;16.63;;;10.40;99.90;;;;;;4974868;28;20030;-70
2024/03/30 00:23:46;;;;;;;19.33;17.83;;;10.40;99.90;;;;;;4973081;28;20066;-70
2024/03/30 00:26:12;;;;;;;19.88;18.27;;;10.40;99.90;;;;;;4938238;28;20050;-71
2024/03/30 00:28:38;;;;;;;20.35;18.83;;;10.40;99.90;;;;;;4916280;28;20059;-70
2024/03/30 00:31:06;;;;;;;22.38;20.40;;;10.50;99.90;;;;;;4951090;28;20084;-74
2024/03/30 00:33:32;;;;;;;18.98;17.17;;;10.30;99.90;;;;;;4945485;28;20539;-73
2024/03/30 00:35:58;;;;;;;23.48;20.95;;;10.20;99.90;;;;;;4962726;28;20046;-72
2024/03/30 00:38:25;;;;;;;26.25;20.88;;;10.00;99.90;;;;;;4954618;28;20046;-73
2024/03/30 00:40:51;;;;;;;23.33;18.55;;;10.00;99.90;;;;;;4959282;28;20041;-72
2024/03/30 00:43:17;;;;;;;19.23;15.30;;;9.90;99.90;;;;;;4962844;28;20046;-72
2024/03/30 00:45:44;;;;;;;17.27;14.98;;;9.70;99.90;;;;;;4980566;28;20230;-73
2024/03/30 00:48:12;;;;;;;18.20;14.65;;;9.60;99.90;;;;;;4971050;28;20135;-73
2024/03/30 00:50:38;;;;;;;20.38;14.90;;;9.50;99.90;;;;;;4980473;28;20053;-73
2024/03/30 00:53:05;;;;;;;19.17;15.52;;;9.50;99.90;;;;;;4962300;28;20046;-73
2024/03/30 00:55:31;;;;;;;22.67;17.52;;;9.60;99.90;;;;;;4952970;28;20046;-73
2024/03/30 00:57:58;;;;;;;19.55;15.00;;;9.60;99.90;;;;;;4953959;28;20593;-72
2024/03/30 01:00:24;;;;;;;20.23;14.93;;;9.60;99.90;;;;;;4954524;28;20109;-71
2024/03/30 01:02:50;;;;;;;39.38;23.77;;;9.50;99.90;;;;;;4963025;28;20046;-72
2024/03/30 01:05:20;;;;;;;26.77;16.55;;;9.50;99.90;;;;;;4943189;28;20081;-70
2024/03/30 01:07:48;;;;;;;41.30;23.35;;;9.50;99.90;;;;;;4938414;28;20096;-71
2024/03/30 01:10:14;;;;;;;21.00;15.38;;;9.50;99.90;;;;;;4957322;28;20535;-72
2024/03/30 01:12:41;;;;;;;21.10;16.30;;;9.50;99.90;;;;;;4970641;28;20581;-73
2024/03/30 01:15:08;;;;;;;22.92;17.45;;;9.60;99.90;;;;;;4957862;28;20054;-72
2024/03/30 01:17:34;;;;;;;24.40;17.00;;;9.50;99.90;;;;;;4939697;28;20050;-73
2024/03/30 01:20:06;;;;;;;31.30;19.30;;;9.40;99.90;;;;;;4975122;28;20046;-73
2024/03/30 01:22:33;;;;;;;25.52;17.90;;;9.40;99.90;;;;;;4950710;28;20052;-72
2024/03/30 01:25:00;;;;;;;21.08;16.27;;;9.50;99.90;;;;;;4970934;28;20038;-73
2024/03/30 01:27:28;;;;;;;26.90;17.63;;;9.40;99.90;;;;;;4948791;28;20067;-73
2024/03/30 01:30:04;;;;;;;30.05;19.77;;;9.40;99.90;;;;;;4972407;28;20054;-71
2024/03/30 01:32:36;;;;;;;26.60;18.30;;;9.30;99.90;;;;;;4950905;28;21460;-72
2024/03/30 01:35:02;;;;;;;22.65;17.00;;;9.30;99.90;;;;;;4959810;28;20173;-72
2024/03/30 01:37:28;;;;;;;22.55;17.25;;;9.40;99.90;;;;;;4954619;28;20547;-71
2024/03/30 01:39:56;;;;;;;28.95;18.67;;;9.30;99.90;;;;;;4957191;28;20078;-73
2024/03/30 01:42:30;;;;;;;30.20;20.40;;;9.40;99.90;;;;;;4954437;28;20044;-72
2024/03/30 01:44:56;;;;;;;28.02;19.80;;;9.30;99.90;;;;;;4977884;28;20066;-72
2024/03/30 01:47:25;;;;;;;26.20;18.65;;;9.40;99.90;;;;;;4967076;28;20528;-72
2024/03/30 01:49:53;;;;;;;25.83;18.83;;;9.40;99.90;;;;;;4961256;28;20051;-72
2024/03/30 01:52:21;;;;;;;26.33;19.73;;;9.30;99.90;;;;;;4948095;28;20043;-72
2024/03/30 01:54:49;;;;;;;29.75;18.90;;;9.30;99.90;;;;;;4969811;28;20339;-71
2024/03/30 01:57:16;;;;;;;28.30;20.42;;;9.20;99.90;;;;;;4974147;28;20054;-72
2024/03/30 01:59:42;;;;;;;33.47;21.75;;;9.20;99.90;;;;;;4973902;28;20046;-70
2024/03/30 02:02:10;;;;;;;29.98;21.67;;;9.10;99.90;;;;;;4978808;28;20073;-72
2024/03/30 02:04:38;;;;;;;32.35;21.58;;;9.00;99.90;;;;;;4960942;28;20046;-71
2024/03/30 02:07:05;;;;;;;32.45;21.17;;;9.10;99.90;;;;;;4973005;28;20038;-72
2024/03/30 02:09:33;;;;;;;29.27;20.63;;;9.10;99.90;;;;;;4973688;28;20046;-71
2024/03/30 02:11:59;;;;;;;32.20;21.23;;;9.10;99.90;;;;;;4961424;28;20050;-71
2024/03/30 02:14:25;;;;;;;27.48;20.25;;;9.20;99.90;;;;;;4958308;28;20451;-71
2024/03/30 02:16:51;;;;;;;35.65;21.85;;;9.20;99.90;;;;;;4942368;28;20121;-70
2024/03/30 02:19:19;;;;;;;34.40;21.67;;;9.10;99.90;;;;;;4942100;28;20054;-71
2024/03/30 02:21:45;;;;;;;33.72;22.15;;;9.10;99.90;;;;;;4952079;28;20038;-70
2024/03/30 02:24:11;;;;;;;31.58;20.13;;;9.10;99.90;;;;;;4950310;28;20083;-71
2024/03/30 02:26:38;;;;;;;32.05;20.70;;;9.10;99.90;;;;;;4939564;28;20709;-72
2024/03/30 02:29:12;;;;;;;26.90;19.35;;;9.00;99.90;;;;;;4956433;28;20060;-72
2024/03/30 02:31:38;;;;;;;27.70;18.63;;;9.00;99.90;;;;;;4949934;28;21494;-71
2024/03/30 02:34:05;;;;;;;27.73;18.73;;;9.00;99.90;;;;;;4970257;28;20297;-72
2024/03/30 02:36:33;;;;;;;23.98;16.50;;;9.00;99.90;;;;;;4967883;28;20031;-69
2024/03/30 02:38:59;;;;;;;24.75;18.10;;;9.00;99.90;;;;;;4978263;28;20038;-71
2024/03/30 02:41:25;;;;;;;24.27;16.90;;;9.00;99.90;;;;;;4960927;28;20042;-71
2024/03/30 02:43:55;;;;;;;23.00;17.10;;;9.00;99.90;;;;;;4975190;28;20046;-72
2024/03/30 02:46:21;;;;;;;22.48;17.77;;;9.00;99.90;;;;;;4996497;28;20788;-71
2024/03/30 02:48:47;;;;;;;24.13;17.58;;;9.10;99.90;;;;;;4958071;28;20083;-71
2024/03/30 02:51:13;;;;;;;25.27;17.25;;;9.10;99.90;;;;;;4943001;28;20097;-71
2024/03/30 02:53:40;;;;;;;23.88;17.77;;;9.10;99.90;;;;;;4973688;28;20053;-72
2024/03/30 02:56:06;;;;;;;27.38;17.70;;;9.10;99.90;;;;;;4955575;28;20061;-72
2024/03/30 02:58:32;;;;;;;19.42;14.95;;;9.10;99.90;;;;;;4955574;28;20043;-70
2024/03/30 03:00:58;;;;;;;23.55;16.92;;;9.00;99.90;;;;;;4957654;28;20049;-72
2024/03/30 03:03:25;;;;;;;21.35;16.05;;;9.00;99.90;;;;;;4957054;28;20137;-72
2024/03/30 03:05:55;;;;;;;22.98;14.85;;;9.10;99.90;;;;;;4969375;28;20622;-72
2024/03/30 03:08:24;;;;;;;19.75;14.00;;;9.20;99.90;;;;;;4953240;28;20042;-72
2024/03/30 03:10:51;;;;;;;13.20;10.65;;;9.10;99.90;;;;;;4956054;28;20492;-71
2024/03/30 03:13:17;;;;;;;13.93;10.77;;;9.10;99.90;;;;;;4954510;28;20078;-71
2024/03/30 03:15:43;;;;;;;14.98;11.77;;;9.10;99.90;;;;;;4964337;28;20100;-71
2024/03/30 03:18:09;;;;;;;15.93;11.45;;;9.00;99.90;;;;;;4954592;28;20039;-71
2024/03/30 03:20:36;;;;;;;13.85;10.20;;;9.10;99.90;;;;;;4950976;28;20722;-69
2024/03/30 03:23:02;;;;;;;14.23;11.27;;;9.10;99.90;;;;;;4955491;28;20049;-71
2024/03/30 03:25:28;;;;;;;15.93;12.45;;;9.10;99.90;;;;;;4955329;28;20046;-70
2024/03/30 03:27:54;;;;;;;17.67;11.25;;;9.00;99.90;;;;;;4949060;28;21102;-72
2024/03/30 03:30:20;;;;;;;15.38;11.60;;;9.00;99.90;;;;;;4941636;28;20050;-70
2024/03/30 03:32:46;;;;;;;14.13;10.07;;;9.00;99.90;;;;;;4969970;28;20377;-72
2024/03/30 03:35:12;;;;;;;10.30;8.75;;;8.90;99.90;;;;;;4970704;28;20130;-71
2024/03/30 03:37:38;;;;;;;8.80;7.85;;;8.90;99.90;;;;;;4949607;28;20057;-70
2024/03/30 03:40:05;;;;;;;10.45;7.50;;;8.90;99.90;;;;;;4956237;28;20057;-71
2024/03/30 03:42:31;;;;;;;10.82;8.85;;;8.90;99.90;;;;;;4955348;28;20702;-72
2024/03/30 03:44:57;;;;;;;8.65;7.47;;;8.90;99.90;;;;;;4966390;28;20046;-70
2024/03/30 03:47:23;;;;;;;10.15;7.68;;;8.90;99.90;;;;;;4934521;28;20050;-71
2024/03/30 03:49:49;;;;;;;10.00;7.82;;;8.90;99.90;;;;;;4922832;28;20121;-72
2024/03/30 03:52:16;;;;;;;8.18;6.78;;;9.00;99.90;;;;;;4969118;28;20056;-70
2024/03/30 03:54:42;;;;;;;7.72;6.55;;;9.00;99.90;;;;;;4954331;28;20046;-71
2024/03/30 03:57:08;;;;;;;9.30;7.03;;;9.00;99.90;;;;;;4953836;28;20062;-71
2024/03/30 03:59:34;;;;;;;11.32;7.32;;;9.00;99.90;;;;;;4975352;28;20061;-71
2024/03/30 04:02:00;;;;;;;8.25;7.45;;;9.00;99.90;;;;;;4971428;28;21324;-71
2024/03/30 04:04:27;;;;;;;7.93;7.10;;;9.00;99.90;;;;;;4961473;28;20121;-72
2024/03/30 04:06:53;;;;;;;9.68;6.50;;;9.00;99.90;;;;;;4952545;28;20527;-71
2024/03/30 04:09:19;;;;;;;9.30;6.40;;;9.00;99.90;;;;;;4957782;28;20692;-70
2024/03/30 04:11:45;;;;;;;8.75;5.97;;;9.10;99.90;;;;;;4956340;28;20038;-72
2024/03/30 04:14:12;;;;;;;8.98;6.93;;;9.00;99.90;;;;;;4958986;28;20511;-71
2024/03/30 04:16:38;;;;;;;8.50;6.65;;;9.10;99.90;;;;;;4951952;28;20054;-70
2024/03/30 04:19:04;;;;;;;7.97;5.97;;;9.10;99.90;;;;;;4956363;28;20034;-71
2024/03/30 04:21:30;;;;;;;7.72;5.65;;;9.10;99.90;;;;;;4975379;28;20039;-71
2024/03/30 04:23:56;;;;;;;5.95;5.45;;;9.20;99.90;;;;;;4959418;28;20121;-71
2024/03/30 04:26:23;;;;;;;6.45;5.30;;;9.20;99.90;;;;;;4959289;28;20044;-71
2024/03/30 04:28:49;;;;;;;6.10;5.40;;;9.20;99.90;;;;;;4950543;28;20061;-72
2024/03/30 04:31:15;;;;;;;5.45;4.95;;;9.20;99.90;;;;;;4978379;28;20049;-72
2024/03/30 04:33:41;;;;;;;5.03;4.53;;;9.20;99.90;;;;;;4941322;28;20058;-70
2024/03/30 04:36:07;;;;;;;6.35;5.75;;;9.20;99.90;;;;;;4960667;28;20053;-72
2024/03/30 04:38:37;;;;;;;5.20;4.70;;;9.20;99.90;;;;;;4951585;28;20043;-69
2024/03/30 04:41:08;;;;;;;5.78;5.28;;;9.30;99.90;;;;;;4953421;28;20054;-71
2024/03/30 04:43:35;;;;;;;7.55;6.85;;;9.20;99.90;;;;;;4980149;28;20053;-71
2024/03/30 04:46:04;;;;;;;7.40;6.18;;;9.30;99.90;;;;;;4954534;28;20143;-71
2024/03/30 04:48:30;;;;;;;7.63;6.65;;;9.20;99.90;;;;;;4961646;28;20092;-71
2024/03/30 04:50:59;;;;;;;8.32;7.30;;;9.20;99.90;;;;;;4961821;28;20050;-71
2024/03/30 04:53:29;;;;;;;7.63;7.03;;;9.20;99.90;;;;;;4965395;28;20046;-71
2024/03/30 04:56:00;;;;;;;7.55;6.93;;;9.10;99.90;;;;;;4954505;28;20038;-72
2024/03/30 04:58:31;;;;;;;;;;;9.20;99.90;;;;;;4955271;28;20054;-71
2024/03/30 05:01:08;;;;;;;7.07;6.40;;;9.20;99.90;;;;;;4955238;28;19995;-71
2024/03/30 05:03:35;;;;;;;7.10;6.43;;;9.00;99.90;;;;;;4961652;28;20054;-71
2024/03/30 05:06:03;;;;;;;6.85;5.85;;;9.10;99.90;;;;;;4955647;28;20050;-71
2024/03/30 05:08:30;;;;;;;6.53;5.57;;;9.10;99.90;;;;;;4961356;28;20054;-71
2024/03/30 05:10:56;;;;;;;8.15;6.35;;;9.10;99.90;;;;;;4938536;28;20541;-70
2024/03/30 05:13:23;;;;;;;8.15;6.45;;;9.00;99.90;;;;;;4956610;28;20050;-70
2024/03/30 05:15:49;;;;;;;7.75;6.95;;;9.10;99.90;;;;;;4960472;28;20062;-69
2024/03/30 05:18:17;;;;;;;9.02;6.10;;;9.00;99.90;;;;;;4972683;28;20121;-70
2024/03/30 05:20:50;;;;;;;6.15;5.32;;;9.10;99.90;;;;;;4940876;28;20771;-71
2024/03/30 05:23:20;;;;;;;5.50;4.95;;;9.00;99.90;;;;;;4958075;28;20052;-71
2024/03/30 05:25:48;;;;;;;7.13;6.43;;;9.10;99.90;;;;;;4959066;28;20038;-71
2024/03/30 05:28:16;;;;;;;7.93;7.32;;;9.10;99.90;;;;;;4955085;28;20061;-71
2024/03/30 05:30:43;;;;;;;8.25;7.55;;;9.10;99.90;;;;;;4975928;28;20256;-71
2024/03/30 05:33:11;;;;;;;8.73;7.93;;;9.10;99.90;;;;;;4976744;28;20053;-72
2024/03/30 05:35:38;;;;;;;9.77;7.95;;;9.20;99.90;;;;;;4972704;28;20039;-71
2024/03/30 05:38:04;;;;;;;9.25;7.47;;;9.10;99.90;;;;;;4955177;28;20046;-72
2024/03/30 05:40:32;;;;;;;8.90;8.10;;;9.10;99.90;;;;;;4960398;28;20038;-71
2024/03/30 05:43:05;;;;;;;12.80;8.65;;;9.00;99.90;;;;;;4957372;28;20051;-72
2024/03/30 05:45:32;;;;;;;10.00;9.10;;;9.10;99.90;;;;;;4957698;28;20039;-71
2024/03/30 05:47:59;;;;;;;9.73;8.90;;;9.10;99.90;;;;;;4972471;28;20641;-71
2024/03/30 05:50:26;;;;;;;10.57;9.48;;;9.10;99.90;;;;;;4945298;28;20046;-71
2024/03/30 05:52:53;;;;;;;11.25;10.20;;;9.10;99.90;;;;;;4954929;28;20073;-71
2024/03/30 05:55:19;;;;;;;9.77;8.82;;;9.20;99.90;;;;;;4957749;28;20089;-70
2024/03/30 05:57:46;;;;;;;10.40;9.50;;;9.20;99.90;;;;;;4951858;28;20073;-70
2024/03/30 06:00:14;;;;;;;9.90;9.00;;;9.20;99.90;;;;;;4959997;28;20046;-73
2024/03/30 06:02:43;;;;;;;10.07;7.68;;;9.30;99.90;;;;;;4958913;28;20054;-73
2024/03/30 06:05:10;;;;;;;7.38;6.45;;;9.20;99.90;;;;;;4975160;28;20046;-73
2024/03/30 06:07:37;;;;;;;11.13;6.90;;;9.40;99.90;;;;;;4962515;28;20054;-71
2024/03/30 06:10:05;;;;;;;9.02;6.80;;;9.50;99.90;;;;;;4954873;28;20046;-71
2024/03/30 06:12:31;;;;;;;9.05;6.97;;;9.60;99.90;;;;;;4953159;28;20073;-71
2024/03/30 06:14:57;;;;;;;7.38;6.68;;;9.60;99.90;;;;;;4952936;28;20133;-70
2024/03/30 06:17:23;;;;;;;7.65;6.88;;;9.70;99.90;;;;;;4971734;28;20050;-70
2024/03/30 06:19:49;;;;;;;7.55;6.80;;;9.90;99.90;;;;;;4953314;28;20664;-71
2024/03/30 06:22:15;;;;;;;7.25;6.63;;;10.00;99.90;;;;;;4960449;28;20068;-70
2024/03/30 06:24:42;;;;;;;9.02;7.22;;;10.00;99.90;;;;;;4955992;28;20038;-70
2024/03/30 06:27:09;;;;;;;8.23;7.63;;;10.10;99.90;;;;;;4951585;28;20558;-70
2024/03/30 06:29:37;;;;;;;8.68;7.97;;;10.20;99.90;;;;;;4969446;28;20109;-71
2024/03/30 06:32:04;;;;;;;8.57;7.90;;;10.30;99.90;;;;;;4969673;28;20709;-71
2024/03/30 06:34:30;;;;;;;9.30;8.23;;;10.30;99.90;;;;;;4971104;28;20504;-71
2024/03/30 06:36:57;;;;;;;9.23;8.43;;;10.30;99.90;;;;;;4954492;28;20048;-70
2024/03/30 06:39:23;;;;;;;10.50;9.70;;;10.40;99.90;;;;;;4954576;28;20041;-71
2024/03/30 06:44:34;;;;;;;10.32;9.63;;;10.60;99.90;;;;;;4972425;28;20603;-71
2024/03/30 06:47:01;;;;;;;11.40;10.50;;;10.80;99.90;;;;;;4967572;28;20131;-68
2024/03/30 06:49:27;;;;;;;12.13;11.35;;;10.90;99.90;;;;;;4984978;28;20058;-71
2024/03/30 06:51:54;;;;;;;11.77;10.85;;;11.00;99.90;;;;;;4979351;28;20068;-70
2024/03/30 06:54:20;;;;;;;13.32;11.82;;;11.10;99.90;;;;;;4943789;28;20144;-71
2024/03/30 06:56:47;;;;;;;12.95;12.05;;;11.20;99.90;;;;;;4957330;28;20519;-70
2024/03/30 06:59:13;;;;;;;13.27;12.15;;;11.20;99.90;;;;;;4958487;28;20710;-70
2024/03/30 07:01:39;;;;;;;16.42;12.98;;;11.20;99.90;;;;;;4975569;28;20302;-71
2024/03/30 07:04:05;;;;;;;15.65;14.40;;;11.30;99.90;;;;;;4956624;28;20290;-69
2024/03/30 07:06:31;;;;;;;14.88;13.68;;;11.30;99.90;;;;;;4939774;28;20034;-71
2024/03/30 07:08:57;;;;;;;15.50;13.93;;;11.30;99.90;;;;;;4959479;28;20088;-70
2024/03/30 07:11:24;;;;;;;15.82;14.48;;;11.40;99.90;;;;;;4960116;28;20583;-70
2024/03/30 07:13:50;;;;;;;15.80;14.63;;;11.40;99.90;;;;;;4972586;28;20167;-69
2024/03/30 07:16:16;;;;;;;15.55;14.45;;;11.40;99.90;;;;;;4954981;28;20042;-70
2024/03/30 07:18:44;;;;;;;15.40;14.07;;;11.40;99.90;;;;;;4978485;28;20109;-70
2024/03/30 07:21:10;;;;;;;16.67;14.15;;;11.40;99.90;;;;;;4958801;28;20134;-68
2024/03/30 07:23:37;;;;;;;15.70;14.43;;;11.50;99.90;;;;;;4959922;28;20163;-70
2024/03/30 07:26:04;;;;;;;16.50;14.57;;;11.50;99.90;;;;;;4976164;28;20081;-69
2024/03/30 07:28:31;;;;;;;16.95;15.65;;;11.50;99.90;;;;;;4972627;28;20049;-69
2024/03/30 07:31:05;;;;;;;18.35;16.75;;;11.50;99.90;;;;;;4960373;28;20050;-67
2024/03/30 07:33:32;;;;;;;17.48;16.08;;;11.50;99.90;;;;;;4947393;28;20038;-69
2024/03/30 07:35:59;;;;;;;18.58;16.92;;;11.50;99.90;;;;;;4971429;28;20050;-69
2024/03/30 07:38:32;;;;;;;19.95;17.88;;;11.60;99.90;;;;;;4983203;28;20715;-68
2024/03/30 07:40:59;;;;;;;18.20;16.90;;;11.50;99.90;;;;;;4965157;28;20714;-68
2024/03/30 07:43:25;;;;;;;19.70;18.00;;;11.50;99.90;;;;;;4978068;28;21095;-69
2024/03/30 07:45:52;;;;;;;18.60;17.40;;;11.50;99.90;;;;;;4971912;28;20038;-68
2024/03/30 07:48:19;;;;;;;19.95;17.10;;;11.40;99.90;;;;;;4973941;28;20041;-68
2024/03/30 07:50:45;;;;;;;15.70;14.45;;;11.40;99.90;;;;;;4947582;28;20045;-70
2024/03/30 07:53:12;;;;;;;19.67;18.25;;;11.40;99.90;;;;;;4946683;28;20092;-69
2024/03/30 07:55:39;;;;;;;19.73;17.85;;;11.50;99.90;;;;;;4971428;28;20435;-68
2024/03/30 07:58:05;;;;;;;18.85;17.17;;;11.60;99.90;;;;;;4957465;28;20051;-70
2024/03/30 08:00:31;;;;;;;20.00;18.25;;;11.60;99.90;;;;;;4960790;28;20046;-69
2024/03/30 08:03:03;;;;;;;19.80;18.40;;;11.60;99.90;;;;;;4961088;28;20162;-69
2024/03/30 08:05:29;;;;;;;18.48;16.92;;;11.60;99.90;;;;;;4945151;28;20046;-70
2024/03/30 08:07:55;;;;;;;19.20;17.35;;;11.70;99.90;;;;;;4945347;28;20046;-68
2024/03/30 08:10:23;;;;;;;21.77;19.90;;;11.80;99.90;;;;;;4948669;28;20057;-69
2024/03/30 08:12:50;;;;;;;22.63;20.23;;;11.70;99.90;;;;;;4962038;28;20069;-67
2024/03/30 08:15:16;;;;;;;24.08;21.60;;;11.80;99.90;;;;;;4957217;28;20042;-67
2024/03/30 08:17:43;;;;;;;22.73;20.77;;;11.80;99.90;;;;;;4959342;28;20038;-67
2024/03/30 08:20:10;;;;;;;24.50;22.05;;;12.00;99.90;;;;;;4974752;28;20050;-68
2024/03/30 08:22:41;;;;;;;26.52;23.02;;;12.00;99.90;;;;;;4965172;28;20046;-70
2024/03/30 08:25:07;;;;;;;23.15;20.90;;;12.10;99.90;;;;;;4962031;28;20170;-69
2024/03/30 08:27:34;;;;;;;23.83;21.48;;;12.10;99.90;;;;;;4962492;28;20244;-69
2024/03/30 08:30:03;;;;;;;25.92;22.05;;;12.20;99.90;;;;;;4959787;28;20137;-69
2024/03/30 08:32:29;;;;;;;24.05;21.77;;;12.10;99.90;;;;;;4980834;28;20145;-69
2024/03/30 08:34:55;;;;;;;24.45;22.25;;;12.20;99.90;;;;;;4991713;28;20041;-70
2024/03/30 08:37:23;;;;;;;24.77;22.45;;;12.20;99.90;;;;;;4964409;28;20096;-70
2024/03/30 08:39:49;;;;;;;26.63;23.92;;;12.30;99.90;;;;;;4980269;28;20632;-69
2024/03/30 08:42:15;;;;;;;26.70;23.58;;;12.30;99.90;;;;;;4940301;28;20038;-69
2024/03/30 08:44:42;;;;;;;27.65;25.23;;;12.40;99.90;;;;;;4953183;28;20080;-69
2024/03/30 08:47:08;;;;;;;26.70;24.50;;;12.50;99.90;;;;;;4972807;28;20113;-70
2024/03/30 08:49:35;;;;;;;27.70;25.58;;;12.50;99.90;;;;;;4965536;28;20543;-69
2024/03/30 08:52:01;;;;;;;31.67;25.10;;;12.60;99.90;;;;;;4961207;28;20046;-69
2024/03/30 08:54:27;;;;;;;26.77;24.20;;;12.60;99.90;;;;;;4957428;28;20042;-69
2024/03/30 08:56:54;;;;;;;26.70;24.10;;;12.70;99.90;;;;;;4981522;28;20534;-69
2024/03/30 08:59:20;;;;;;;28.60;25.85;;;12.80;99.90;;;;;;4959755;28;20500;-69
2024/03/30 09:01:47;;;;;;;29.67;26.83;;;12.80;99.90;;;;;;4973735;28;20681;-69
2024/03/30 09:04:13;;;;;;;30.77;27.73;;;12.90;99.90;;;;;;4956936;28;20039;-69
2024/03/30 09:06:40;;;;;;;31.05;27.13;;;12.90;99.90;;;;;;4960184;28;20038;-69
2024/03/30 09:09:06;;;;;;;36.15;26.75;;;12.90;99.90;;;;;;4952260;28;20118;-68
2024/03/30 09:11:32;;;;;;;33.65;26.95;;;12.80;99.90;;;;;;4974108;28;20454;-68
2024/03/30 09:13:59;;;;;;;27.88;22.27;;;12.80;99.90;;;;;;4960349;28;20058;-69
2024/03/30 09:16:25;;;;;;;26.48;23.52;;;12.80;99.90;;;;;;4955243;28;20038;-70
2024/03/30 09:18:51;;;;;;;26.85;23.23;;;12.90;99.90;;;;;;4956186;28;20615;-69
2024/03/30 09:21:17;;;;;;;26.00;23.20;;;12.90;99.90;;;;;;4958654;28;20208;-67
2024/03/30 09:23:43;;;;;;;34.03;25.63;;;13.00;99.90;;;;;;4976381;28;20041;-68
2024/03/30 09:26:10;;;;;;;36.17;25.15;;;13.00;99.90;;;;;;4972984;28;20034;-68
2024/03/30 09:28:35;;;;;;;35.60;25.73;;;13.10;99.90;;;;;;4946880;28;20685;-70
2024/03/30 09:31:02;;;;;;;36.00;26.27;;;13.20;99.90;;;;;;4970958;28;20042;-69
2024/03/30 09:33:28;;;;;;;41.65;25.48;;;13.30;99.90;;;;;;4963678;28;20039;-68
2024/03/30 09:35:55;;;;;;;42.65;31.83;;;13.30;99.90;;;;;;4975366;28;20715;-68
2024/03/30 09:38:22;;;;;;;36.80;32.88;;;13.40;99.90;;;;;;4943078;28;20069;-68
2024/03/30 09:40:54;;;;;;;37.72;33.83;;;13.40;99.90;;;;;;4960683;28;20038;-70
2024/03/30 09:43:20;;;;;;;41.10;32.55;;;13.40;99.90;;;;;;4978300;28;20109;-67
2024/03/30 09:45:48;;;;;;;43.83;30.95;;;13.40;99.90;;;;;;4967751;28;20990;-68
2024/03/30 09:48:16;;;;;;;38.25;25.42;;;13.50;99.90;;;;;;4954286;28;20122;-68
2024/03/30 09:50:43;;;;;;;36.13;24.67;;;13.50;99.90;;;;;;4975866;28;20546;-70
2024/03/30 09:53:11;;;;;;;39.28;26.02;;;13.50;99.90;;;;;;4969359;28;20061;-70
2024/03/30 09:55:39;;;;;;;45.33;26.42;;;13.50;99.90;;;;;;4974537;28;20054;-68
2024/03/30 09:58:07;;;;;;;34.35;26.58;;;13.50;99.90;;;;;;4958329;28;20046;-70
2024/03/30 10:00:34;;;;;;;34.45;25.65;;;13.60;99.90;;;;;;4956961;28;20038;-70
2024/03/30 10:03:00;;;;;;;42.22;26.45;;;13.60;99.90;;;;;;4946721;28;20046;-70
2024/03/30 10:05:28;;;;;;;35.22;26.58;;;13.60;99.90;;;;;;4979964;28;20033;-70
2024/03/30 10:08:01;;;;;;;43.00;25.75;;;13.70;99.90;;;;;;4961558;28;20056;-69
2024/03/30 10:10:29;;;;;;;38.70;25.15;;;13.70;99.90;;;;;;4963175;28;20096;-69
2024/03/30 10:13:03;;;;;;;38.85;24.90;;;13.70;99.90;;;;;;4972821;28;20107;-67
2024/03/30 10:15:45;;;;;;;37.50;25.57;;;13.80;99.90;;;;;;4956284;28;20116;-69
2024/03/30 10:18:19;;;;;;;44.33;26.63;;;13.70;99.90;;;;;;5062928;27;20465;-69
2024/03/30 10:20:45;;;;;;;40.70;27.95;;;13.80;99.90;;;;;;5055654;28;20620;-70
2024/03/30 10:23:11;;;;;;;48.88;28.08;;;13.80;99.90;;;;;;5012590;28;20061;-71
2024/03/30 10:25:37;;;;;;;39.13;27.73;;;13.90;99.90;;;;;;4978346;28;20056;-70
2024/03/30 10:28:06;;;;;;;40.22;26.73;;;13.90;99.90;;;;;;5002391;28;20046;-70
2024/03/30 10:30:33;;;;;;;45.92;27.95;;;14.00;99.90;;;;;;4986166;28;20049;-70
2024/03/30 10:33:10;;;;;;;42.10;28.15;;;14.20;99.90;;;;;;5015125;28;20049;-71
2024/03/30 10:35:36;;;;;;;45.20;27.33;;;14.30;99.90;;;;;;4989758;28;20048;-70
2024/03/30 10:38:03;;;;;;;46.08;29.92;;;14.40;99.90;;;;;;5002005;28;20914;-70
2024/03/30 10:40:29;;;;;;;40.42;27.13;;;14.40;99.90;;;;;;5004376;28;20517;-69
2024/03/30 10:42:59;;;;;;;51.33;28.27;;;14.60;99.90;;;;;;5028145;28;20040;-69
2024/03/30 10:45:25;;;;;;;48.35;27.88;;;14.60;99.90;;;;;;4993487;28;20033;-71
2024/03/30 10:47:54;;;;;;;42.63;27.02;;;14.60;99.90;;;;;;5023769;28;20685;-70
2024/03/30 10:50:21;;;;;;;42.95;29.13;;;14.70;99.90;;;;;;4986083;28;20947;-71
2024/03/30 10:52:48;;;;;;;43.50;28.23;;;14.80;99.90;;;;;;5008508;28;20535;-69
2024/03/30 10:55:15;;;;;;;36.35;25.38;;;14.80;99.90;;;;;;5005022;28;20100;-69
2024/03/30 10:57:41;;;;;;;40.78;26.05;;;14.80;99.90;;;;;;5007366;28;20046;-70
2024/03/30 11:00:10;;;;;;;45.20;27.30;;;14.70;99.90;;;;;;4978600;28;20041;-69
2024/03/30 11:02:38;;;;;;;47.83;28.17;;;14.70;99.90;;;;;;5017838;28;20076;-70
2024/03/30 11:05:05;;;;;;;42.15;27.13;;;14.80;99.90;;;;;;4994827;28;20295;-69
2024/03/30 11:07:36;;;;;;;34.90;28.17;;;14.60;99.90;;;;;;5009727;28;20089;-71
2024/03/30 11:10:05;;;;;;;35.05;28.02;;;14.60;99.90;;;;;;4990590;28;20104;-69
2024/03/30 11:12:32;;;;;;;32.55;27.58;;;14.60;99.90;;;;;;4993028;28;20579;-71
2024/03/30 11:14:59;;;;;;;34.45;27.77;;;14.60;99.90;;;;;;4981282;28;20048;-69
2024/03/30 11:17:54;;;;;;;33.55;25.92;;;14.70;99.90;;;;;;5020102;28;20041;-71
2024/03/30 11:20:29;;;;;;;38.65;26.17;;;14.90;99.90;;;;;;5001956;28;20614;-69
2024/03/30 11:23:06;;;;;;;34.60;25.73;;;15.00;99.90;;;;;;4997693;28;20832;-70
2024/03/30 11:25:34;;;;;;;32.97;26.05;;;15.00;99.90;;;;;;5001116;28;20052;-70
2024/03/30 11:28:16;;;;;;;32.70;28.58;;;15.00;99.90;;;;;;4985317;28;20045;-71
2024/03/30 11:31:02;;;;;;;40.10;31.88;;;15.00;99.90;;;;;;4974537;28;20037;-69
2024/03/30 11:33:28;;;;;;;;;;;15.20;99.90;;;;;;4997990;28;20061;-70
2024/03/30 11:36:17;;;;;;;43.42;29.27;;;15.10;99.90;;;;;;4983818;28;19925;-71
2024/03/30 11:38:49;;;;;;;34.03;29.42;;;15.20;99.90;;;;;;4990416;28;20626;-71
2024/03/30 11:41:16;;;;;;;42.30;29.85;;;15.40;99.90;;;;;;4972935;28;20047;-71
2024/03/30 11:44:04;;;;;;;35.92;30.15;;;15.60;99.90;;;;;;4997088;28;20034;-71
2024/03/30 11:46:30;;;;;;;38.55;30.48;;;15.70;99.90;;;;;;4967073;28;20460;-71
2024/03/30 11:48:57;;;;;;;33.80;29.58;;;15.70;99.90;;;;;;4981358;28;20525;-71
2024/03/30 11:51:30;;;;;;;41.90;30.45;;;15.70;99.90;;;;;;4981663;28;20045;-69
2024/03/30 11:53:56;;;;;;;38.40;28.98;;;15.60;99.90;;;;;;4990752;28;20670;-71
2024/03/30 11:56:32;;;;;;;31.10;28.30;;;15.50;99.90;;;;;;4978627;28;20050;-69
2024/03/30 11:59:01;;;;;;;40.58;32.03;;;15.50;99.90;;;;;;4992209;28;20571;-70
2024/03/30 12:01:27;;;;;;;34.75;28.33;;;15.80;99.90;;;;;;4993952;28;20041;-70
2024/03/30 12:03:53;;;;;;;40.85;26.30;;;15.90;99.90;;;;;;4962705;28;20641;-72
2024/03/30 12:06:21;;;;;;;36.95;27.38;;;15.90;99.90;;;;;;4987770;28;20041;-71
2024/03/30 12:08:48;;;;;;;42.50;27.00;;;16.00;99.90;;;;;;5008326;28;20096;-70
2024/03/30 12:11:17;;;;;;;41.65;27.85;;;16.10;99.90;;;;;;4977877;28;20056;-71
2024/03/30 12:13:43;;;;;;;38.17;27.80;;;16.20;99.90;;;;;;4970637;28;20116;-70
2024/03/30 12:16:10;;;;;;;31.25;28.15;;;16.20;99.90;;;;;;4978176;28;20541;-70
2024/03/30 12:18:36;;;;;;;41.85;28.45;;;16.40;99.90;;;;;;4997883;28;20041;-71
2024/03/30 12:21:03;;;;;;;42.80;28.15;;;16.40;99.90;;;;;;4977634;28;20039;-71
2024/03/30 12:23:29;;;;;;;42.13;26.17;;;16.50;99.90;;;;;;4993572;28;20057;-72
2024/03/30 12:25:59;;;;;;;41.78;28.73;;;16.60;99.90;;;;;;4976804;28;20030;-72
2024/03/30 12:28:25;;;;;;;39.88;27.50;;;16.60;99.90;;;;;;4978574;28;20048;-70
2024/03/30 12:30:53;;;;;;;38.50;27.65;;;16.50;99.90;;;;;;4994069;28;20045;-71
2024/03/30 12:33:19;;;;;;;41.67;27.50;;;16.40;99.90;;;;;;4959083;28;20617;-70
2024/03/30 12:35:46;;;;;;;50.55;30.80;;;16.50;99.90;;;;;;4978145;28;20148;-71
2024/03/30 12:38:15;;;;;;;45.92;28.02;;;16.50;99.90;;;;;;4979361;28;20054;-71
2024/03/30 12:40:45;;;;;;;40.30;28.38;;;16.50;99.90;;;;;;4970450;28;20050;-72